Aden, Yemen
Current Conditions -  °F | °C
As of 8:00 AM on Saturday 20 Dec 2014 (Local Time) from OYAA Reporting Station
Scattered Clouds Scattered Clouds  
Wind Chill: 79°   Ceiling: Unl
Heat Index: 81°   Visibility: 6mi
Dew Point: 66°   Wind: 8mph
Humidity: 65%   Direction: 40°NE
Pressure: 30.09"   Gusts: NA
Location:  12.79°N, 45.03°E
Report Text: OYAA 200500Z 04007KT 9999 FEW018TCU SCT020 26/19 Q1019
Loading
Personal Weather Stations






























Interactive Weather Map New forecast layout! Learn more

10-Day Weather Forecast

Advertisements
Track Severe Weather on mobile